Time;durP1;ratioP1;P1;durP2;ratioP2;P2;SDS_P1;SDS_P2;PMS_P1;PMS_P2;Temp;Humidity;BMP_temperature;BMP_pressure;BME280_temperature;BME280_humidity;BME280_pressure;Samples;Min_cycle;Max_cycle;Signal;HPM_P1;HPM_P2
2022/01/14 00:01:17;;;;;;;31.88;11.18;;;;;;;;;;4971326;28;20026;-74
2022/01/14 00:03:44;;;;;;;28.95;10.90;;;;;;;;;;4972890;28;20034;-73
2022/01/14 00:06:11;;;;;;;32.60;13.02;;;;;;;;;;4973155;28;20034;-74
2022/01/14 00:08:37;;;;;;;40.45;15.57;;;;;;;;;;4972124;28;20400;-74
2022/01/14 00:11:13;;;;;;;48.67;16.75;;;;;;;;;;4972359;28;20037;-73
2022/01/14 00:16:09;;;;;;;40.53;15.02;;;;;;;;;;4976101;28;20045;-74
2022/01/14 00:18:36;;;;;;;39.85;15.02;;;;;;;;;;4976439;28;20502;-74
2022/01/14 00:21:02;;;;;;;41.92;15.13;;;;;;;;;;4976977;28;20035;-74
2022/01/14 00:23:34;;;;;;;39.72;14.70;;;;;;;;;;4990976;28;20033;-74
2022/01/14 00:34:10;;;;;;;28.10;11.80;;;;;;;;;;4975988;28;20047;-74
2022/01/14 00:36:36;;;;;;;24.52;11.20;;;;;;;;;;4976409;28;20023;-74
2022/01/14 00:39:03;;;;;;;15.43;8.70;;;;;;;;;;4976430;28;20034;-74
2022/01/14 00:41:30;;;;;;;16.88;8.23;;;;;;;;;;4975396;28;20053;-74
2022/01/14 00:44:01;;;;;;;23.45;9.05;;;;;;;;;;4975856;28;20027;-73
2022/01/14 00:46:28;;;;;;;26.20;11.13;;;;;;;;;;4975814;28;20522;-74
2022/01/14 00:48:56;;;;;;;19.65;7.95;;;;;;;;;;4975544;28;20061;-74
2022/01/14 00:51:23;;;;;;;16.02;7.78;;;;;;;;;;4972429;28;20014;-73
2022/01/14 00:53:49;;;;;;;16.85;8.88;;;;;;;;;;4975824;28;20027;-74
2022/01/14 00:56:47;;;;;;;20.38;9.43;;;;;;;;;;4975091;28;20383;-74
2022/01/14 00:59:14;;;;;;;18.50;9.23;;;;;;;;;;4976400;28;20031;-74
2022/01/14 01:01:45;;;;;;;35.83;11.63;;;;;;;;;;4975525;28;20370;-74
2022/01/14 01:04:13;;;;;;;24.17;9.82;;;;;;;;;;4975404;28;20053;-74
2022/01/14 01:06:40;;;;;;;47.97;14.80;;;;;;;;;;4975542;28;20030;-74
2022/01/14 01:09:11;;;;;;;26.65;10.15;;;;;;;;;;4976157;28;20029;-74
2022/01/14 01:11:52;;;;;;;33.75;12.07;;;;;;;;;;4975287;28;20088;-74
2022/01/14 01:14:25;;;;;;;26.45;11.38;;;;;;;;;;4975236;28;20039;-74
2022/01/14 01:16:51;;;;;;;22.17;9.23;;;;;;;;;;4975280;28;20027;-74
2022/01/14 01:19:17;;;;;;;57.88;16.48;;;;;;;;;;4975152;28;20431;-74
2022/01/14 01:21:44;;;;;;;27.50;10.20;;;;;;;;;;4975286;28;20034;-74
2022/01/14 01:24:12;;;;;;;16.42;8.50;;;;;;;;;;4975745;28;20034;-74
2022/01/14 01:26:41;;;;;;;31.80;10.50;;;;;;;;;;4973944;28;20019;-74
2022/01/14 01:31:38;;;;;;;47.92;11.70;;;;;;;;;;4975156;28;20030;-74
2022/01/14 01:34:09;;;;;;;22.60;8.77;;;;;;;;;;4974843;28;20049;-74
2022/01/14 01:36:36;;;;;;;18.92;8.25;;;;;;;;;;4975025;28;20066;-73
2022/01/14 01:39:04;;;;;;;16.50;7.30;;;;;;;;;;4975393;28;20444;-74
2022/01/14 01:41:31;;;;;;;16.25;7.57;;;;;;;;;;4974701;28;20054;-74
2022/01/14 01:43:59;;;;;;;24.67;8.82;;;;;;;;;;4974614;28;20027;-74
2022/01/14 01:46:25;;;;;;;18.00;8.73;;;;;;;;;;4975151;28;20030;-73
2022/01/14 01:48:52;;;;;;;18.88;8.55;;;;;;;;;;4974700;28;20027;-73
2022/01/14 01:51:19;;;;;;;17.15;9.00;;;;;;;;;;4975315;28;20030;-74
2022/01/14 01:53:46;;;;;;;18.63;9.10;;;;;;;;;;4974289;28;20027;-74
2022/01/14 01:56:13;;;;;;;28.90;10.77;;;;;;;;;;4974793;28;20035;-74
2022/01/14 01:58:40;;;;;;;28.50;11.23;;;;;;;;;;4989309;28;20029;-73
2022/01/14 02:01:07;;;;;;;23.90;9.38;;;;;;;;;;4974549;28;20022;-73
2022/01/14 02:03:34;;;;;;;20.45;8.85;;;;;;;;;;4974701;28;20519;-74
2022/01/14 02:06:01;;;;;;;19.85;9.73;;;;;;;;;;4975094;28;20027;-74
2022/01/14 02:08:27;;;;;;;21.05;9.77;;;;;;;;;;4988680;28;20534;-74
2022/01/14 02:10:53;;;;;;;18.88;10.02;;;;;;;;;;4974558;28;20041;-74
2022/01/14 02:13:20;;;;;;;27.38;10.88;;;;;;;;;;4974101;28;20033;-73
2022/01/14 02:18:29;;;;;;;15.45;7.63;;;;;;;;;;4974657;28;20495;-73
2022/01/14 02:23:46;;;;;;;32.67;9.68;;;;;;;;;;4973538;28;20045;-74
2022/01/14 02:26:13;;;;;;;;;;;;;;;;;;4974292;28;20030;-74
2022/01/14 02:28:40;;;;;;;13.52;7.07;;;;;;;;;;4973942;28;19959;-74
2022/01/14 02:31:07;;;;;;;17.10;6.95;;;;;;;;;;4973893;28;20025;-74
2022/01/14 02:33:33;;;;;;;14.02;6.88;;;;;;;;;;4974045;28;20372;-73
2022/01/14 02:36:00;;;;;;;17.65;6.70;;;;;;;;;;4974176;28;20514;-74
2022/01/14 02:38:26;;;;;;;15.43;6.85;;;;;;;;;;4988411;28;20027;-74
2022/01/14 02:40:53;;;;;;;12.98;6.03;;;;;;;;;;4973415;28;20062;-74
2022/01/14 02:43:19;;;;;;;12.85;6.28;;;;;;;;;;4973678;28;20025;-74
2022/01/14 02:45:50;;;;;;;12.55;6.50;;;;;;;;;;4973730;28;20045;-74
2022/01/14 02:48:17;;;;;;;13.65;6.75;;;;;;;;;;4973955;28;20035;-74
2022/01/14 02:51:29;;;;;;;14.30;6.45;;;;;;;;;;4973274;28;20037;-73
2022/01/14 02:55:59;;;;;;;11.93;5.95;;;;;;;;;;4973459;28;20431;-73
2022/01/14 02:58:27;;;;;;;16.98;7.00;;;;;;;;;;4973292;28;20510;-74
2022/01/14 03:00:54;;;;;;;23.40;7.75;;;;;;;;;;4973623;28;20011;-74
2022/01/14 03:03:24;;;;;;;16.90;7.40;;;;;;;;;;4969836;28;20037;-74
2022/01/14 03:05:51;;;;;;;13.65;6.60;;;;;;;;;;4973519;28;20023;-74
2022/01/14 03:08:21;;;;;;;13.95;6.00;;;;;;;;;;4973037;28;20030;-74
2022/01/14 03:10:58;;;;;;;15.00;6.68;;;;;;;;;;4973453;28;20029;-74
2022/01/14 03:13:24;;;;;;;12.75;6.05;;;;;;;;;;4973124;28;20554;-74
2022/01/14 03:15:51;;;;;;;12.73;6.35;;;;;;;;;;4973237;28;20037;-74
2022/01/14 03:18:22;;;;;;;11.48;6.03;;;;;;;;;;4973780;28;20503;-74
2022/01/14 03:20:52;;;;;;;10.93;5.50;;;;;;;;;;4972822;28;20546;-74
2022/01/14 03:23:19;;;;;;;14.07;6.07;;;;;;;;;;4973045;28;20027;-74
2022/01/14 03:25:49;;;;;;;10.75;5.80;;;;;;;;;;4973172;28;20033;-73
2022/01/14 03:28:19;;;;;;;10.93;5.47;;;;;;;;;;4972839;28;20485;-74
2022/01/14 03:30:46;;;;;;;20.73;8.10;;;;;;;;;;4972812;28;20045;-74
2022/01/14 03:33:12;;;;;;;12.90;5.70;;;;;;;;;;4973385;28;20033;-74
2022/01/14 03:35:39;;;;;;;12.35;4.93;;;;;;;;;;4972527;28;20041;-74
2022/01/14 03:38:05;;;;;;;10.40;5.25;;;;;;;;;;4972687;28;20029;-74
2022/01/14 03:40:32;;;;;;;10.88;5.20;;;;;;;;;;4972647;28;20456;-74
2022/01/14 03:42:58;;;;;;;9.55;5.57;;;;;;;;;;4972754;28;20039;-74
2022/01/14 03:45:25;;;;;;;11.52;5.57;;;;;;;;;;4973477;28;20072;-74
2022/01/14 03:47:51;;;;;;;13.80;6.90;;;;;;;;;;4972589;28;20026;-74
2022/01/14 03:50:17;;;;;;;22.27;8.63;;;;;;;;;;4971935;28;20030;-74
2022/01/14 03:52:44;;;;;;;24.33;9.48;;;;;;;;;;4972742;28;20057;-74
2022/01/14 03:55:10;;;;;;;20.35;8.05;;;;;;;;;;4972765;28;20146;-74
2022/01/14 03:57:37;;;;;;;26.42;8.52;;;;;;;;;;4972401;28;20030;-74
2022/01/14 04:00:03;;;;;;;13.38;6.60;;;;;;;;;;4970907;28;20403;-74
2022/01/14 04:02:30;;;;;;;13.45;6.43;;;;;;;;;;4972536;28;20025;-74
2022/01/14 04:04:56;;;;;;;15.32;7.22;;;;;;;;;;4972347;28;20034;-74
2022/01/14 04:07:22;;;;;;;15.23;7.50;;;;;;;;;;4972483;28;20053;-74
2022/01/14 04:09:49;;;;;;;18.00;7.43;;;;;;;;;;4972511;28;20034;-74
2022/01/14 04:12:20;;;;;;;18.38;7.32;;;;;;;;;;4973050;28;20047;-74
2022/01/14 04:17:12;;;;;;;10.98;5.32;;;;;;;;;;4972437;28;19917;-74
2022/01/14 04:19:39;;;;;;;13.38;5.88;;;;;;;;;;4971913;28;20030;-74
2022/01/14 04:22:05;;;;;;;12.23;6.28;;;;;;;;;;4972344;28;20026;-74
2022/01/14 04:24:31;;;;;;;10.23;5.22;;;;;;;;;;4972308;28;20023;-74
2022/01/14 04:26:58;;;;;;;10.93;5.45;;;;;;;;;;4972712;28;20419;-73
2022/01/14 04:29:24;;;;;;;10.25;5.22;;;;;;;;;;4972177;28;20019;-74
2022/01/14 04:31:50;;;;;;;8.80;4.68;;;;;;;;;;4972505;28;20029;-74
2022/01/14 04:34:17;;;;;;;11.27;5.25;;;;;;;;;;4971878;28;20057;-74
2022/01/14 04:36:43;;;;;;;11.02;4.55;;;;;;;;;;4971078;28;20035;-74
2022/01/14 04:39:10;;;;;;;9.30;4.43;;;;;;;;;;4988012;28;20035;-74
2022/01/14 04:41:37;;;;;;;9.13;4.57;;;;;;;;;;4971836;28;20431;-74
2022/01/14 04:44:05;;;;;;;9.85;5.60;;;;;;;;;;4972327;28;20069;-74
2022/01/14 04:46:48;;;;;;;11.32;5.00;;;;;;;;;;4956132;28;20403;-74
2022/01/14 04:49:15;;;;;;;13.52;6.25;;;;;;;;;;4971789;28;20031;-74
2022/01/14 04:51:41;;;;;;;14.43;5.93;;;;;;;;;;4972048;28;20067;-74
2022/01/14 04:54:07;;;;;;;13.13;5.63;;;;;;;;;;4972564;28;20043;-74
2022/01/14 04:56:34;;;;;;;10.40;5.22;;;;;;;;;;4971898;28;20027;-74
2022/01/14 04:59:00;;;;;;;14.07;5.65;;;;;;;;;;4971972;28;20050;-74
2022/01/14 05:07:03;;;;;;;8.45;4.53;;;;;;;;;;4934633;29;20443;-74
2022/01/14 05:09:42;;;;;;;15.20;6.57;;;;;;;;;;4936884;29;20127;-74
2022/01/14 05:12:10;;;;;;;8.52;5.45;;;;;;;;;;4936695;29;20015;-74
2022/01/14 05:14:39;;;;;;;9.23;5.35;;;;;;;;;;4936699;29;20050;-74
2022/01/14 05:17:05;;;;;;;9.52;5.15;;;;;;;;;;4936959;29;20050;-74
2022/01/14 05:19:32;;;;;;;10.07;4.90;;;;;;;;;;4937036;29;20566;-74
2022/01/14 05:21:58;;;;;;;8.65;4.68;;;;;;;;;;4936262;29;20093;-74
2022/01/14 05:24:24;;;;;;;7.88;4.40;;;;;;;;;;4936471;29;20533;-74
2022/01/14 05:26:51;;;;;;;8.63;4.35;;;;;;;;;;4936872;29;20020;-74
2022/01/14 05:29:18;;;;;;;11.35;5.43;;;;;;;;;;4935337;29;20039;-74
2022/01/14 05:31:52;;;;;;;10.50;4.65;;;;;;;;;;4936941;29;20020;-74
2022/01/14 05:34:19;;;;;;;10.32;5.35;;;;;;;;;;4936414;29;20044;-74
2022/01/14 05:36:45;;;;;;;10.80;5.05;;;;;;;;;;4936276;29;20027;-74
2022/01/14 05:39:12;;;;;;;10.48;5.82;;;;;;;;;;4936206;29;20412;-74
2022/01/14 05:41:38;;;;;;;11.60;5.43;;;;;;;;;;4936460;29;20019;-74
2022/01/14 05:44:05;;;;;;;9.20;4.65;;;;;;;;;;4936791;29;20027;-74
2022/01/14 05:46:32;;;;;;;10.88;5.20;;;;;;;;;;4936414;29;20043;-74
2022/01/14 05:48:58;;;;;;;8.95;5.30;;;;;;;;;;4936145;29;20022;-74
2022/01/14 05:51:24;;;;;;;10.43;5.35;;;;;;;;;;4966453;28;20047;-74
2022/01/14 05:53:51;;;;;;;11.98;6.13;;;;;;;;;;4936011;29;20396;-74
2022/01/14 05:56:17;;;;;;;12.85;6.47;;;;;;;;;;4936047;29;20193;-74
2022/01/14 05:58:43;;;;;;;9.85;6.13;;;;;;;;;;4936587;29;20016;-74
2022/01/14 06:01:10;;;;;;;11.93;6.20;;;;;;;;;;4935876;29;20032;-74
2022/01/14 06:03:36;;;;;;;13.98;7.32;;;;;;;;;;4936074;29;20028;-74
2022/01/14 06:06:02;;;;;;;17.75;7.00;;;;;;;;;;4935378;29;20062;-74
2022/01/14 06:08:29;;;;;;;14.35;7.32;;;;;;;;;;4935857;29;20034;-74
2022/01/14 06:10:55;;;;;;;18.50;7.88;;;;;;;;;;4936425;29;20415;-74
2022/01/14 06:13:21;;;;;;;14.10;7.70;;;;;;;;;;4935296;29;20034;-74
2022/01/14 06:15:48;;;;;;;13.45;6.60;;;;;;;;;;4935569;29;20034;-74
2022/01/14 06:18:14;;;;;;;12.68;6.75;;;;;;;;;;4935553;29;20019;-74
2022/01/14 06:20:40;;;;;;;11.38;6.40;;;;;;;;;;4935664;29;20033;-74
2022/01/14 06:23:07;;;;;;;11.98;6.13;;;;;;;;;;4935902;29;20031;-74
2022/01/14 06:25:33;;;;;;;12.18;6.72;;;;;;;;;;4935975;29;20028;-74
2022/01/14 06:27:59;;;;;;;17.08;7.47;;;;;;;;;;4935327;29;20023;-74
2022/01/14 06:30:26;;;;;;;15.43;7.65;;;;;;;;;;4935232;29;20024;-75
2022/01/14 06:32:53;;;;;;;15.15;8.13;;;;;;;;;;4935455;29;20018;-74
2022/01/14 06:35:19;;;;;;;15.43;7.25;;;;;;;;;;4935132;29;20055;-73
2022/01/14 06:37:46;;;;;;;11.00;6.57;;;;;;;;;;4935950;29;20030;-74
2022/01/14 06:40:12;;;;;;;13.57;6.43;;;;;;;;;;4935155;29;20041;-73
2022/01/14 06:42:39;;;;;;;12.88;6.53;;;;;;;;;;4935202;29;20028;-74
2022/01/14 06:45:05;;;;;;;11.52;6.22;;;;;;;;;;4935070;29;20026;-74
2022/01/14 06:47:32;;;;;;;12.25;6.60;;;;;;;;;;4933686;29;20040;-74
2022/01/14 06:49:59;;;;;;;12.38;6.40;;;;;;;;;;4935671;29;20523;-74
2022/01/14 06:52:25;;;;;;;12.32;6.60;;;;;;;;;;4934856;29;20016;-74
2022/01/14 06:54:52;;;;;;;10.68;5.53;;;;;;;;;;4934765;29;20054;-74
2022/01/14 06:57:19;;;;;;;15.85;7.15;;;;;;;;;;4934815;29;20030;-74
2022/01/14 06:59:45;;;;;;;15.90;8.15;;;;;;;;;;4965689;28;20031;-74
2022/01/14 07:02:11;;;;;;;13.30;7.45;;;;;;;;;;4935228;29;20074;-74
2022/01/14 07:04:37;;;;;;;19.90;8.68;;;;;;;;;;4934722;29;20504;-74
2022/01/14 07:07:04;;;;;;;40.47;15.75;;;;;;;;;;4932924;29;20023;-74
2022/01/14 07:09:31;;;;;;;22.73;10.02;;;;;;;;;;4933938;29;20023;-74
2022/01/14 07:12:00;;;;;;;19.38;9.15;;;;;;;;;;4933623;29;20024;-74
2022/01/14 07:14:27;;;;;;;23.15;9.75;;;;;;;;;;4934224;29;20044;-74
2022/01/14 07:16:53;;;;;;;26.52;9.98;;;;;;;;;;4934567;29;20040;-74
2022/01/14 07:19:21;;;;;;;27.08;11.07;;;;;;;;;;4933746;29;20036;-74
2022/01/14 07:21:47;;;;;;;15.82;7.20;;;;;;;;;;4934316;29;20030;-74
2022/01/14 07:24:14;;;;;;;11.02;6.05;;;;;;;;;;4933204;29;20488;-74
2022/01/14 07:26:41;;;;;;;11.65;6.05;;;;;;;;;;4931868;29;20078;-74
2022/01/14 07:29:08;;;;;;;11.82;5.80;;;;;;;;;;4934031;29;20011;-74
2022/01/14 07:31:34;;;;;;;16.33;6.82;;;;;;;;;;4933844;29;20415;-74
2022/01/14 07:34:01;;;;;;;19.02;6.32;;;;;;;;;;4933868;29;20098;-74
2022/01/14 07:36:28;;;;;;;15.60;6.55;;;;;;;;;;4933705;29;20053;-74
2022/01/14 07:38:54;;;;;;;19.55;8.57;;;;;;;;;;4934099;29;20477;-74
2022/01/14 07:41:21;;;;;;;19.92;7.25;;;;;;;;;;4933590;29;20038;-74
2022/01/14 07:43:49;;;;;;;23.58;6.93;;;;;;;;;;4949265;29;20044;-74
2022/01/14 07:46:17;;;;;;;17.55;7.50;;;;;;;;;;4933238;29;20044;-74
2022/01/14 07:48:43;;;;;;;18.50;8.57;;;;;;;;;;4933269;29;20019;-75
2022/01/14 07:51:10;;;;;;;25.23;10.02;;;;;;;;;;4933768;29;20031;-75
2022/01/14 07:53:37;;;;;;;32.80;11.93;;;;;;;;;;4933879;29;20034;-72
2022/01/14 07:56:06;;;;;;;27.38;11.98;;;;;;;;;;4933113;29;20066;-72
2022/01/14 07:58:33;;;;;;;30.08;12.77;;;;;;;;;;4933386;29;20020;-74
2022/01/14 08:01:00;;;;;;;30.17;12.60;;;;;;;;;;4932401;29;20054;-75
2022/01/14 08:03:26;;;;;;;26.73;11.82;;;;;;;;;;4931573;29;20481;-75
2022/01/14 08:05:54;;;;;;;26.42;11.75;;;;;;;;;;4957118;28;20512;-75
2022/01/14 08:08:20;;;;;;;29.88;12.23;;;;;;;;;;4931786;29;20032;-72
2022/01/14 08:10:47;;;;;;;30.00;12.25;;;;;;;;;;4932401;29;20044;-73
2022/01/14 08:13:13;;;;;;;25.55;12.13;;;;;;;;;;4932398;29;20023;-75
2022/01/14 08:15:39;;;;;;;36.53;17.55;;;;;;;;;;4932269;29;20038;-75
2022/01/14 08:18:07;;;;;;;44.17;19.15;;;;;;;;;;4932694;29;20032;-75
2022/01/14 08:20:33;;;;;;;32.72;15.30;;;;;;;;;;4962902;28;20031;-74
2022/01/14 08:23:00;;;;;;;39.28;16.50;;;;;;;;;;4933401;29;20094;-75
2022/01/14 08:25:27;;;;;;;28.23;15.18;;;;;;;;;;4931951;29;20036;-74
2022/01/14 08:27:53;;;;;;;35.08;15.57;;;;;;;;;;4932810;29;20027;-74
2022/01/14 08:30:20;;;;;;;41.55;17.38;;;;;;;;;;4931701;29;20556;-75
2022/01/14 08:32:46;;;;;;;34.47;15.93;;;;;;;;;;4932075;29;20016;-74
2022/01/14 08:35:12;;;;;;;35.58;15.43;;;;;;;;;;4933657;29;20508;-75
2022/01/14 08:37:39;;;;;;;24.63;13.63;;;;;;;;;;4935585;29;20038;-74
2022/01/14 08:40:07;;;;;;;18.25;9.88;;;;;;;;;;4934989;29;20492;-75
2022/01/14 08:42:34;;;;;;;17.77;10.63;;;;;;;;;;4935518;29;20031;-74
2022/01/14 08:45:00;;;;;;;18.02;10.43;;;;;;;;;;4935997;28;20404;-75
2022/01/14 08:47:27;;;;;;;21.23;10.65;;;;;;;;;;4935360;29;20099;-74
2022/01/14 08:49:53;;;;;;;12.15;8.23;;;;;;;;;;4936583;29;20034;-74
2022/01/14 08:52:20;;;;;;;14.98;8.95;;;;;;;;;;4935960;29;20022;-74
2022/01/14 08:54:46;;;;;;;13.02;7.97;;;;;;;;;;4935841;29;20043;-75
2022/01/14 08:57:13;;;;;;;19.10;9.30;;;;;;;;;;4933576;29;20496;-75
2022/01/14 08:59:41;;;;;;;21.08;10.80;;;;;;;;;;4934941;29;20094;-75
2022/01/14 09:02:07;;;;;;;18.50;9.38;;;;;;;;;;4934494;29;20051;-75
2022/01/14 09:04:34;;;;;;;16.02;7.45;;;;;;;;;;4935562;29;20035;-74
2022/01/14 09:07:01;;;;;;;13.77;8.10;;;;;;;;;;4965789;28;20031;-75
2022/01/14 09:09:28;;;;;;;18.23;7.70;;;;;;;;;;4934846;29;20497;-74
2022/01/14 09:11:55;;;;;;;12.25;5.68;;;;;;;;;;4935059;29;20034;-74
2022/01/14 09:14:22;;;;;;;10.48;6.03;;;;;;;;;;4934909;29;20035;-76
2022/01/14 09:16:48;;;;;;;9.80;6.03;;;;;;;;;;4936218;29;20408;-75
2022/01/14 09:19:14;;;;;;;16.50;5.65;;;;;;;;;;4935072;29;20472;-76
2022/01/14 09:21:44;;;;;;;13.88;5.93;;;;;;;;;;4935070;29;20043;-75
2022/01/14 09:24:10;;;;;;;10.80;6.10;;;;;;;;;;4934811;29;20590;-83
2022/01/14 09:26:38;;;;;;;13.27;6.60;;;;;;;;;;4935400;29;20523;-76
2022/01/14 09:29:06;;;;;;;12.05;5.50;;;;;;;;;;4934299;29;20436;-76
2022/01/14 09:31:33;;;;;;;11.65;5.75;;;;;;;;;;4935546;29;20492;-76
2022/01/14 09:33:59;;;;;;;11.02;6.35;;;;;;;;;;4965903;28;20485;-76
2022/01/14 09:36:26;;;;;;;11.20;5.97;;;;;;;;;;4965909;28;20023;-76
2022/01/14 09:38:52;;;;;;;8.02;4.55;;;;;;;;;;4935647;29;20031;-76
2022/01/14 09:41:19;;;;;;;7.38;5.00;;;;;;;;;;4934872;29;20043;-76
2022/01/14 09:43:46;;;;;;;10.63;5.43;;;;;;;;;;4934984;29;20027;-77
2022/01/14 09:46:12;;;;;;;8.15;5.53;;;;;;;;;;4934987;29;20042;-76
2022/01/14 09:48:39;;;;;;;10.73;5.78;;;;;;;;;;4934236;29;20024;-76
2022/01/14 09:51:05;;;;;;;8.90;5.78;;;;;;;;;;4934228;29;20024;-76
2022/01/14 09:53:32;;;;;;;8.98;5.88;;;;;;;;;;4934843;29;20028;-81
2022/01/14 09:55:59;;;;;;;11.93;6.47;;;;;;;;;;4934899;29;20035;-75
2022/01/14 09:58:27;;;;;;;11.43;6.20;;;;;;;;;;4934176;29;20386;-73
2022/01/14 10:01:14;;;;;;;10.55;6.45;;;;;;;;;;4935038;29;20038;-76
2022/01/14 10:03:50;;;;;;;9.52;5.97;;;;;;;;;;4934625;29;20024;-77
2022/01/14 10:06:36;;;;;;;14.80;6.00;;;;;;;;;;4934561;29;20065;-78
2022/01/14 10:09:05;;;;;;;12.65;5.75;;;;;;;;;;4934314;29;20599;-79
2022/01/14 10:11:31;;;;;;;9.07;5.78;;;;;;;;;;4932545;29;20023;-81
2022/01/14 10:14:04;;;;;;;10.25;5.30;;;;;;;;;;4948862;29;20047;-81
2022/01/14 10:16:30;;;;;;;7.15;4.68;;;;;;;;;;4934320;29;20027;-78
2022/01/14 10:18:57;;;;;;;10.77;5.32;;;;;;;;;;4953503;28;20485;-75
2022/01/14 10:21:30;;;;;;;12.60;5.45;;;;;;;;;;4934294;29;20030;-77
2022/01/14 10:23:57;;;;;;;9.02;4.30;;;;;;;;;;4934416;29;20109;-75
2022/01/14 10:26:25;;;;;;;11.30;5.00;;;;;;;;;;4933942;29;20032;-79
2022/01/14 10:28:59;;;;;;;9.38;4.72;;;;;;;;;;4934971;29;20388;-78
2022/01/14 10:31:32;;;;;;;8.23;4.68;;;;;;;;;;4934308;29;20026;-78
2022/01/14 10:34:15;;;;;;;6.57;3.90;;;;;;;;;;4933978;29;20408;-78
2022/01/14 10:36:45;;;;;;;7.75;4.15;;;;;;;;;;4934552;29;20019;-77
2022/01/14 10:39:18;;;;;;;6.80;4.55;;;;;;;;;;4934250;29;20020;-81
2022/01/14 10:41:45;;;;;;;11.52;5.10;;;;;;;;;;4933775;29;20082;-77
2022/01/14 10:44:28;;;;;;;12.55;4.65;;;;;;;;;;4933856;29;20034;-77
2022/01/14 10:47:13;;;;;;;6.38;4.00;;;;;;;;;;4934486;29;20330;-76
2022/01/14 10:49:40;;;;;;;10.70;4.55;;;;;;;;;;4949158;29;20508;-76
2022/01/14 10:52:17;;;;;;;8.43;4.25;;;;;;;;;;4933555;29;20365;-79
2022/01/14 10:54:45;;;;;;;9.75;4.72;;;;;;;;;;4933481;29;20066;-80
2022/01/14 10:57:12;;;;;;;5.85;4.03;;;;;;;;;;4933800;29;20489;-77
2022/01/14 10:59:39;;;;;;;6.47;3.80;;;;;;;;;;4932563;28;20435;-76
2022/01/14 11:02:25;;;;;;;12.02;4.85;;;;;;;;;;4934254;29;20036;-75
2022/01/14 11:05:04;;;;;;;5.80;3.97;;;;;;;;;;4932571;29;20047;-77
2022/01/14 11:07:31;;;;;;;7.10;3.55;;;;;;;;;;4933226;29;20043;-76
2022/01/14 11:10:01;;;;;;;6.88;3.30;;;;;;;;;;4932964;29;20034;-79
2022/01/14 11:12:29;;;;;;;5.40;3.80;;;;;;;;;;4934016;29;20032;-77
2022/01/14 11:14:56;;;;;;;6.47;3.15;;;;;;;;;;4934403;29;20539;-76
2022/01/14 11:17:22;;;;;;;6.28;3.63;;;;;;;;;;4934050;29;20028;-77
2022/01/14 11:19:49;;;;;;;6.32;3.50;;;;;;;;;;4935014;29;20404;-77
2022/01/14 11:25:00;;;;;;;6.80;3.67;;;;;;;;;;4934143;29;20032;-79
2022/01/14 11:27:27;;;;;;;6.10;3.80;;;;;;;;;;4934240;29;20019;-77
2022/01/14 11:29:58;;;;;;;8.48;3.63;;;;;;;;;;4934167;29;20488;-76
2022/01/14 11:32:28;;;;;;;6.45;3.90;;;;;;;;;;4934539;29;20019;-76
2022/01/14 11:34:54;;;;;;;10.45;3.60;;;;;;;;;;4934665;29;20073;-76
2022/01/14 11:37:29;;;;;;;8.02;4.55;;;;;;;;;;4934150;29;20511;-76
2022/01/14 11:40:04;;;;;;;12.82;6.05;;;;;;;;;;4933938;29;20032;-78
2022/01/14 11:42:46;;;;;;;9.88;5.65;;;;;;;;;;4933976;29;20023;-75
2022/01/14 11:45:17;;;;;;;9.98;5.13;;;;;;;;;;4964646;28;20066;-74
2022/01/14 11:47:45;;;;;;;9.93;5.50;;;;;;;;;;4934233;29;20086;-75
2022/01/14 11:50:23;;;;;;;9.50;5.78;;;;;;;;;;4933854;29;20036;-75
2022/01/14 11:52:49;;;;;;;9.35;6.47;;;;;;;;;;4934481;29;20028;-76
2022/01/14 11:55:22;;;;;;;8.15;5.63;;;;;;;;;;4933710;29;20046;-76
2022/01/14 11:57:52;;;;;;;9.60;5.80;;;;;;;;;;4933802;29;20030;-76
2022/01/14 12:00:30;;;;;;;7.50;5.15;;;;;;;;;;4934159;29;20035;-77
2022/01/14 12:02:56;;;;;;;10.45;5.15;;;;;;;;;;4933877;29;20022;-76
2022/01/14 12:05:25;;;;;;;8.35;5.65;;;;;;;;;;4933655;29;20052;-77
2022/01/14 12:10:30;;;;;;;8.65;5.65;;;;;;;;;;4934393;29;20392;-76
2022/01/14 12:13:15;;;;;;;8.57;5.53;;;;;;;;;;4938148;29;20030;-76
2022/01/14 12:15:56;;;;;;;9.30;5.63;;;;;;;;;;4937765;29;20035;-76
2022/01/14 12:18:40;;;;;;;8.68;5.53;;;;;;;;;;4937817;29;20031;-76
2022/01/14 12:21:07;;;;;;;9.02;5.05;;;;;;;;;;4937457;29;20024;-76
2022/01/14 12:23:33;;;;;;;6.22;4.53;;;;;;;;;;4937493;29;20031;-76
2022/01/14 12:26:12;;;;;;;8.10;4.88;;;;;;;;;;4938270;29;20039;-76
2022/01/14 12:28:38;;;;;;;8.55;4.85;;;;;;;;;;4937925;29;20058;-76
2022/01/14 12:31:05;;;;;;;8.23;4.97;;;;;;;;;;4937465;29;20019;-76
2022/01/14 12:33:41;;;;;;;7.18;4.95;;;;;;;;;;4937372;29;20403;-77
2022/01/14 12:36:15;;;;;;;7.53;4.57;;;;;;;;;;4935964;29;20035;-77
2022/01/14 12:38:42;;;;;;;7.75;4.68;;;;;;;;;;4965722;28;20047;-76
2022/01/14 12:41:14;;;;;;;6.55;5.03;;;;;;;;;;4937821;29;20034;-75
2022/01/14 12:43:53;;;;;;;11.07;4.47;;;;;;;;;;4937820;29;20028;-73
2022/01/14 12:46:35;;;;;;;7.00;4.95;;;;;;;;;;4937117;29;20387;-75
2022/01/14 12:49:24;;;;;;;7.47;4.07;;;;;;;;;;4935877;29;20036;-76
2022/01/14 12:52:00;;;;;;;8.63;4.53;;;;;;;;;;4933765;29;20050;-76
2022/01/14 12:54:30;;;;;;;5.75;4.35;;;;;;;;;;4936779;29;20042;-75
2022/01/14 12:56:57;;;;;;;6.03;4.27;;;;;;;;;;4933377;29;20028;-76
2022/01/14 12:59:24;;;;;;;9.63;4.05;;;;;;;;;;4934899;29;20283;-76
2022/01/14 13:01:52;;;;;;;6.53;4.30;;;;;;;;;;4936685;29;20024;-75
2022/01/14 13:04:19;;;;;;;5.78;4.47;;;;;;;;;;4935638;29;20034;-75
2022/01/14 13:06:47;;;;;;;5.65;4.25;;;;;;;;;;4935585;29;20051;-76
2022/01/14 13:09:18;;;;;;;6.65;4.22;;;;;;;;;;4935787;29;20024;-75
2022/01/14 13:11:45;;;;;;;;;;;;;;;;;;4936320;29;20038;-76
2022/01/14 13:14:16;;;;;;;8.48;5.13;;;;;;;;;;4935823;29;20273;-75
2022/01/14 13:16:43;;;;;;;7.60;5.35;;;;;;;;;;4935530;29;20434;-74
2022/01/14 13:19:22;;;;;;;9.95;6.10;;;;;;;;;;4935330;29;20045;-76
2022/01/14 13:21:48;;;;;;;11.82;7.40;;;;;;;;;;4935019;29;20027;-75
2022/01/14 13:24:33;;;;;;;15.25;8.95;;;;;;;;;;4935263;29;20511;-76
2022/01/14 13:27:05;;;;;;;9.93;7.55;;;;;;;;;;4935464;29;20489;-76
2022/01/14 13:29:37;;;;;;;11.88;7.72;;;;;;;;;;4936492;29;20037;-76
2022/01/14 13:32:05;;;;;;;13.95;8.65;;;;;;;;;;4934405;29;20027;-76
2022/01/14 13:34:31;;;;;;;14.13;8.75;;;;;;;;;;4935101;29;20030;-76
2022/01/14 13:36:58;;;;;;;13.27;8.18;;;;;;;;;;4935197;29;20035;-76
2022/01/14 13:39:24;;;;;;;14.07;9.05;;;;;;;;;;4935361;29;20028;-75
2022/01/14 13:41:52;;;;;;;11.70;8.10;;;;;;;;;;4934382;29;20030;-75
2022/01/14 13:44:22;;;;;;;10.57;7.80;;;;;;;;;;4935409;29;20032;-76
2022/01/14 13:46:53;;;;;;;17.27;7.18;;;;;;;;;;4933985;29;20027;-75
2022/01/14 13:49:22;;;;;;;9.55;6.43;;;;;;;;;;4934451;29;20024;-77
2022/01/14 13:52:24;;;;;;;7.53;5.43;;;;;;;;;;4953746;28;20051;-76
2022/01/14 13:54:54;;;;;;;8.50;5.75;;;;;;;;;;4879574;29;20045;-76
2022/01/14 13:57:24;;;;;;;7.32;4.60;;;;;;;;;;4879716;29;20040;-75
2022/01/14 13:59:50;;;;;;;6.68;5.00;;;;;;;;;;4878102;29;20036;-75
2022/01/14 14:02:25;;;;;;;4.85;4.10;;;;;;;;;;4878309;29;20037;-75
2022/01/14 14:04:55;;;;;;;6.15;3.97;;;;;;;;;;4880812;29;20422;-77
2022/01/14 14:07:23;;;;;;;8.27;4.50;;;;;;;;;;4865044;29;20097;-75
2022/01/14 14:10:32;;;;;;;5.95;3.92;;;;;;;;;;4880355;29;20033;-73
2022/01/14 14:13:09;;;;;;;6.10;4.80;;;;;;;;;;4879886;29;20025;-76
2022/01/14 14:15:46;;;;;;;6.90;5.13;;;;;;;;;;4880014;29;20128;-74
2022/01/14 14:18:12;;;;;;;8.05;4.32;;;;;;;;;;4880150;29;20444;-73
2022/01/14 14:20:39;;;;;;;7.05;5.30;;;;;;;;;;4876068;29;20528;-72
2022/01/14 14:23:22;;;;;;;5.93;4.32;;;;;;;;;;4880095;29;20084;-72
2022/01/14 14:25:49;;;;;;;6.03;3.58;;;;;;;;;;4890810;29;20033;-73
2022/01/14 14:28:16;;;;;;;8.43;4.22;;;;;;;;;;4898181;29;20039;-74
2022/01/14 14:30:46;;;;;;;11.20;4.40;;;;;;;;;;4934573;29;20035;-73
2022/01/14 14:33:12;;;;;;;8.05;4.88;;;;;;;;;;4949861;28;20098;-74
2022/01/14 14:35:40;;;;;;;7.30;4.65;;;;;;;;;;4934085;29;20432;-76
2022/01/14 14:38:08;;;;;;;8.35;4.60;;;;;;;;;;4935123;29;20031;-75
2022/01/14 14:40:36;;;;;;;6.40;4.18;;;;;;;;;;4934475;29;20512;-75
2022/01/14 14:43:05;;;;;;;6.50;4.40;;;;;;;;;;4933922;29;20522;-76
2022/01/14 14:45:32;;;;;;;9.50;3.65;;;;;;;;;;4933715;29;20551;-74
2022/01/14 14:47:58;;;;;;;4.88;3.72;;;;;;;;;;4933378;29;20036;-75
2022/01/14 14:50:27;;;;;;;4.75;3.25;;;;;;;;;;4934045;29;20032;-74
2022/01/14 14:52:54;;;;;;;5.88;3.40;;;;;;;;;;4933049;29;20046;-74
2022/01/14 14:55:21;;;;;;;6.28;4.40;;;;;;;;;;4933151;29;20500;-73
2022/01/14 14:57:49;;;;;;;8.85;4.20;;;;;;;;;;4933839;29;20023;-74
2022/01/14 15:00:16;;;;;;;6.18;4.28;;;;;;;;;;4934027;29;20039;-73
2022/01/14 15:02:43;;;;;;;7.53;3.67;;;;;;;;;;4933622;29;20032;-70
2022/01/14 15:05:10;;;;;;;9.57;5.72;;;;;;;;;;4934113;29;20053;-71
2022/01/14 15:07:37;;;;;;;6.68;4.40;;;;;;;;;;4934520;29;20097;-70
2022/01/14 15:10:04;;;;;;;11.38;4.07;;;;;;;;;;4934193;29;20508;-69
2022/01/14 15:12:30;;;;;;;5.85;3.75;;;;;;;;;;4933888;29;20496;-69
2022/01/14 15:15:06;;;;;;;6.45;4.45;;;;;;;;;;4933532;29;20489;-69
2022/01/14 15:20:17;;;;;;;8.32;3.78;;;;;;;;;;4934052;29;20031;-71